WMT1243 EDJA-LRTM
Flight info
| Callsign | WMT1243 |
|---|---|
| Flight time | 1h 35m |
| Altitude | 37000 |
| Route | KPT DCT XATER L856 TRAUN/N0434F370 DCT SBG DCT PESAT DCT NARKA/N0283F090 Z941 ATSOS |
| Aircraft | A20N/M-SDE1E2E3FGIJ1J4RWXY/LB1 |
Departure
| Time | 2026-05-07 17:08 |
|---|---|
| Airport | Memmingen Allgau Airport (EDJA) |
Arrival
| Time | 2026-05-07 18:43 |
|---|---|
| Airport | Târgu Mureş Transilvania International Airport (LRTM) |
| Time | Latitude | Longitude | Altitude | Speed | Heading |
|---|---|---|---|---|---|
| 2026-05-07 16:45 | 47.98872 | 10.23242 | 2070 ft | 0 kts | 54° |
| 2026-05-07 17:02 | 47.98872 | 10.23243 | 2070 ft | 0 kts | 55° |
| 2026-05-07 17:02 | 47.98873 | 10.23244 | 2070 ft | 0 kts | 60° |
| 2026-05-07 17:02 | 47.98872 | 10.23249 | 2070 ft | 0 kts | 98° |
| 2026-05-07 17:02 | 47.98863 | 10.23261 | 2070 ft | 2 kts | 142° |
| 2026-05-07 17:03 | 47.98845 | 10.23287 | 2070 ft | 4 kts | 121° |
| 2026-05-07 17:03 | 47.98842 | 10.23338 | 2070 ft | 5 kts | 78° |
| 2026-05-07 17:03 | 47.98856 | 10.23401 | 2070 ft | 7 kts | 70° |
| 2026-05-07 17:03 | 47.98873 | 10.23475 | 2070 ft | 8 kts | 71° |
| 2026-05-07 17:04 | 47.98893 | 10.23561 | 2070 ft | 9 kts | 67° |
| 2026-05-07 17:04 | 47.98909 | 10.23655 | 2070 ft | 9 kts | 96° |
| 2026-05-07 17:04 | 47.98869 | 10.23741 | 2070 ft | 10 kts | 148° |
| 2026-05-07 17:04 | 47.98838 | 10.23833 | 2070 ft | 11 kts | 73° |
| 2026-05-07 17:05 | 47.98879 | 10.23944 | 2070 ft | 13 kts | 58° |
| 2026-05-07 17:05 | 47.98930 | 10.24072 | 2070 ft | 15 kts | 59° |
| 2026-05-07 17:05 | 47.98985 | 10.24212 | 2070 ft | 16 kts | 59° |
| 2026-05-07 17:05 | 47.99046 | 10.24364 | 2070 ft | 17 kts | 59° |
| 2026-05-07 17:06 | 47.99110 | 10.24526 | 2070 ft | 18 kts | 59° |
| 2026-05-07 17:06 | 47.99176 | 10.24692 | 2070 ft | 18 kts | 60° |
| 2026-05-07 17:06 | 47.99242 | 10.24859 | 2070 ft | 18 kts | 59° |
| 2026-05-07 17:06 | 47.99307 | 10.25027 | 2070 ft | 18 kts | 59° |
| 2026-05-07 17:07 | 47.99378 | 10.25187 | 2070 ft | 18 kts | 49° |
| 2026-05-07 17:07 | 47.99419 | 10.25276 | 2070 ft | 6 kts | 144° |
| 2026-05-07 17:07 | 47.99379 | 10.25202 | 2070 ft | 19 kts | 239° |
| 2026-05-07 17:07 | 47.99166 | 10.24665 | 2070 ft | 99 kts | 239° |
| 2026-05-07 17:08 | 47.98696 | 10.23484 | 2075 ft | 163 kts | 240° |
| 2026-05-07 17:08 | 47.98095 | 10.21987 | 2613 ft | 173 kts | 240° |
| 2026-05-07 17:08 | 47.97486 | 10.20429 | 3415 ft | 176 kts | 240° |
| 2026-05-07 17:08 | 47.96857 | 10.18876 | 4177 ft | 178 kts | 239° |
| 2026-05-07 17:09 | 47.96207 | 10.17319 | 4886 ft | 179 kts | 239° |
| 2026-05-07 17:09 | 47.95546 | 10.15736 | 5528 ft | 184 kts | 239° |
| 2026-05-07 17:09 | 47.94852 | 10.14049 | 6004 ft | 200 kts | 239° |
| 2026-05-07 17:09 | 47.94089 | 10.12195 | 6459 ft | 219 kts | 239° |
| 2026-05-07 17:10 | 47.93168 | 10.10235 | 6976 ft | 237 kts | 224° |
| 2026-05-07 17:10 | 47.91793 | 10.08942 | 7852 ft | 240 kts | 199° |
| 2026-05-07 17:10 | 47.90140 | 10.08704 | 8727 ft | 244 kts | 174° |
| 2026-05-07 17:10 | 47.88473 | 10.09194 | 9575 ft | 247 kts | 170° |
| 2026-05-07 17:11 | 47.86799 | 10.09740 | 10379 ft | 249 kts | 170° |
| 2026-05-07 17:11 | 47.85109 | 10.10419 | 11138 ft | 255 kts | 156° |
| 2026-05-07 17:11 | 47.83749 | 10.12110 | 11832 ft | 264 kts | 125° |
| 2026-05-07 17:11 | 47.82806 | 10.14452 | 12565 ft | 267 kts | 121° |
| 2026-05-07 17:12 | 47.81875 | 10.16871 | 13299 ft | 271 kts | 121° |
| 2026-05-07 17:12 | 47.80923 | 10.19305 | 14012 ft | 274 kts | 121° |
| 2026-05-07 17:12 | 47.79946 | 10.21755 | 14696 ft | 279 kts | 122° |
| 2026-05-07 17:12 | 47.78923 | 10.24286 | 15096 ft | 295 kts | 122° |
| 2026-05-07 17:13 | 47.77819 | 10.27004 | 15430 ft | 313 kts | 122° |
| 2026-05-07 17:13 | 47.76668 | 10.29833 | 15834 ft | 327 kts | 122° |
| 2026-05-07 17:13 | 47.75492 | 10.32799 | 16487 ft | 333 kts | 117° |
| 2026-05-07 17:13 | 47.74831 | 10.36102 | 17155 ft | 338 kts | 94° |
| 2026-05-07 17:14 | 47.74971 | 10.39573 | 17844 ft | 340 kts | 80° |
| 2026-05-07 17:14 | 47.75378 | 10.43025 | 18505 ft | 344 kts | 79° |
| 2026-05-07 17:14 | 47.75811 | 10.46568 | 19162 ft | 348 kts | 79° |
| 2026-05-07 17:14 | 47.76233 | 10.50103 | 19814 ft | 352 kts | 79° |
| 2026-05-07 17:15 | 47.76654 | 10.53724 | 20455 ft | 355 kts | 79° |
| 2026-05-07 17:15 | 47.77069 | 10.57379 | 21111 ft | 359 kts | 79° |
| 2026-05-07 17:15 | 47.77477 | 10.61023 | 21755 ft | 362 kts | 79° |
| 2026-05-07 17:15 | 47.77891 | 10.64756 | 22400 ft | 365 kts | 79° |
| 2026-05-07 17:16 | 47.78164 | 10.67223 | 22815 ft | 367 kts | 79° |
| 2026-05-07 17:16 | 47.78716 | 10.72237 | 23647 ft | 371 kts | 79° |
| 2026-05-07 17:16 | 47.79131 | 10.76026 | 24252 ft | 374 kts | 79° |
| 2026-05-07 17:16 | 47.79553 | 10.79884 | 24841 ft | 377 kts | 79° |
| 2026-05-07 17:17 | 47.79972 | 10.83733 | 25408 ft | 380 kts | 79° |
| 2026-05-07 17:17 | 47.80396 | 10.87645 | 25938 ft | 384 kts | 79° |
| 2026-05-07 17:17 | 47.80821 | 10.91585 | 26443 ft | 388 kts | 79° |
| 2026-05-07 17:17 | 47.81250 | 10.95580 | 26934 ft | 391 kts | 79° |
| 2026-05-07 17:18 | 47.81679 | 10.99596 | 27408 ft | 394 kts | 79° |
| 2026-05-07 17:18 | 47.82105 | 11.03584 | 27880 ft | 397 kts | 79° |
| 2026-05-07 17:18 | 47.82543 | 11.07708 | 28333 ft | 400 kts | 79° |
| 2026-05-07 17:18 | 47.82978 | 11.11811 | 28775 ft | 403 kts | 79° |
| 2026-05-07 17:19 | 47.83413 | 11.15942 | 29199 ft | 406 kts | 80° |
| 2026-05-07 17:19 | 47.83844 | 11.20066 | 29596 ft | 408 kts | 80° |
| 2026-05-07 17:19 | 47.84280 | 11.24260 | 29996 ft | 410 kts | 80° |
| 2026-05-07 17:19 | 47.84713 | 11.28436 | 30361 ft | 413 kts | 80° |
| 2026-05-07 17:20 | 47.85153 | 11.32701 | 30741 ft | 415 kts | 80° |
| 2026-05-07 17:20 | 47.85589 | 11.36932 | 31086 ft | 417 kts | 80° |
| 2026-05-07 17:20 | 47.86028 | 11.41205 | 31352 ft | 420 kts | 80° |
| 2026-05-07 17:20 | 47.86470 | 11.45513 | 31599 ft | 423 kts | 80° |
| 2026-05-07 17:21 | 47.86912 | 11.49854 | 31816 ft | 425 kts | 80° |
| 2026-05-07 17:21 | 47.87354 | 11.54209 | 32018 ft | 428 kts | 80° |
| 2026-05-07 17:21 | 47.87796 | 11.58588 | 32214 ft | 431 kts | 80° |
| 2026-05-07 17:21 | 47.88240 | 11.63006 | 32420 ft | 433 kts | 80° |
| 2026-05-07 17:22 | 47.88680 | 11.67411 | 32610 ft | 436 kts | 81° |
| 2026-05-07 17:22 | 47.89127 | 11.71906 | 32787 ft | 438 kts | 81° |
| 2026-05-07 17:22 | 47.89575 | 11.76420 | 32979 ft | 441 kts | 81° |
| 2026-05-07 17:22 | 47.90021 | 11.80928 | 33157 ft | 443 kts | 81° |
| 2026-05-07 17:23 | 47.90468 | 11.85420 | 33346 ft | 445 kts | 81° |
| 2026-05-07 17:23 | 47.90921 | 11.89970 | 33537 ft | 447 kts | 81° |
| 2026-05-07 17:23 | 47.91374 | 11.94545 | 33731 ft | 449 kts | 82° |
| 2026-05-07 17:23 | 47.91828 | 11.99156 | 33926 ft | 451 kts | 82° |
| 2026-05-07 17:24 | 47.92287 | 12.03842 | 34104 ft | 453 kts | 82° |
| 2026-05-07 17:24 | 47.92736 | 12.08450 | 34286 ft | 454 kts | 82° |
| 2026-05-07 17:24 | 47.93183 | 12.13087 | 34526 ft | 454 kts | 82° |
| 2026-05-07 17:24 | 47.93632 | 12.17761 | 34763 ft | 454 kts | 82° |
| 2026-05-07 17:25 | 47.94078 | 12.22397 | 34985 ft | 454 kts | 82° |
| 2026-05-07 17:25 | 47.94522 | 12.27064 | 35211 ft | 454 kts | 82° |
| 2026-05-07 17:25 | 47.94958 | 12.31684 | 35439 ft | 454 kts | 82° |
| 2026-05-07 17:25 | 47.95393 | 12.36326 | 35636 ft | 455 kts | 82° |
| 2026-05-07 17:26 | 47.95833 | 12.41038 | 35834 ft | 455 kts | 82° |
| 2026-05-07 17:26 | 47.96266 | 12.45705 | 36014 ft | 456 kts | 82° |
| 2026-05-07 17:26 | 47.96695 | 12.50347 | 36182 ft | 457 kts | 82° |
| 2026-05-07 17:26 | 47.97123 | 12.55014 | 36358 ft | 458 kts | 82° |
| 2026-05-07 17:27 | 47.97559 | 12.59759 | 36539 ft | 458 kts | 82° |
| 2026-05-07 17:27 | 47.97993 | 12.64468 | 36701 ft | 459 kts | 82° |
| 2026-05-07 17:27 | 47.98428 | 12.69183 | 36843 ft | 460 kts | 83° |
| 2026-05-07 17:27 | 47.98859 | 12.73888 | 36983 ft | 461 kts | 83° |
| 2026-05-07 17:28 | 47.99699 | 12.83355 | 37031 ft | 462 kts | 85° |
| 2026-05-07 17:28 | 48.00001 | 12.92953 | 37031 ft | 461 kts | 92° |
| 2026-05-07 17:29 | 47.99603 | 13.02490 | 36982 ft | 461 kts | 96° |
| 2026-05-07 17:29 | 47.99347 | 13.07211 | 36509 ft | 464 kts | 96° |
| 2026-05-07 17:29 | 47.99084 | 13.12001 | 36155 ft | 460 kts | 96° |
| 2026-05-07 17:30 | 47.98825 | 13.16773 | 36018 ft | 461 kts | 96° |
| 2026-05-07 17:30 | 47.98566 | 13.21534 | 36058 ft | 465 kts | 96° |
| 2026-05-07 17:30 | 47.98307 | 13.26309 | 36292 ft | 464 kts | 96° |
| 2026-05-07 17:30 | 47.98048 | 13.31077 | 36549 ft | 462 kts | 96° |
| 2026-05-07 17:31 | 47.97788 | 13.35842 | 36765 ft | 461 kts | 96° |
| 2026-05-07 17:31 | 47.97522 | 13.40646 | 36938 ft | 461 kts | 96° |
| 2026-05-07 17:31 | 47.96991 | 13.50173 | 37022 ft | 462 kts | 96° |
| 2026-05-07 17:32 | 47.96451 | 13.59739 | 37028 ft | 462 kts | 96° |
| 2026-05-07 17:32 | 47.95997 | 13.67667 | 37023 ft | 461 kts | 97° |
| 2026-05-07 17:33 | 47.95356 | 13.78701 | 37027 ft | 462 kts | 97° |
| 2026-05-07 17:33 | 47.94793 | 13.88246 | 37022 ft | 463 kts | 97° |
| 2026-05-07 17:34 | 47.94220 | 13.97820 | 37019 ft | 463 kts | 97° |
| 2026-05-07 17:34 | 47.93640 | 14.07376 | 37023 ft | 463 kts | 97° |
| 2026-05-07 17:35 | 47.93056 | 14.16854 | 37025 ft | 463 kts | 97° |
| 2026-05-07 17:35 | 47.92453 | 14.26491 | 37021 ft | 471 kts | 97° |
| 2026-05-07 17:36 | 47.91830 | 14.36321 | 37021 ft | 480 kts | 97° |
| 2026-05-07 17:36 | 47.91193 | 14.46251 | 37016 ft | 487 kts | 97° |
| 2026-05-07 17:37 | 47.90538 | 14.56361 | 37020 ft | 491 kts | 97° |
| 2026-05-07 17:37 | 47.89873 | 14.66469 | 37017 ft | 492 kts | 98° |
| 2026-05-07 17:38 | 47.89193 | 14.76658 | 37008 ft | 491 kts | 98° |
| 2026-05-07 17:38 | 47.88511 | 14.86741 | 37017 ft | 491 kts | 98° |
| 2026-05-07 17:39 | 47.87812 | 14.96904 | 37013 ft | 491 kts | 98° |
| 2026-05-07 17:39 | 47.87110 | 15.07019 | 37014 ft | 492 kts | 98° |
| 2026-05-07 17:40 | 47.86399 | 15.17125 | 37007 ft | 492 kts | 98° |
| 2026-05-07 17:40 | 47.85683 | 15.27184 | 37002 ft | 492 kts | 98° |
| 2026-05-07 17:41 | 47.84951 | 15.37311 | 36993 ft | 492 kts | 99° |
| 2026-05-07 17:41 | 47.84215 | 15.47390 | 37013 ft | 491 kts | 99° |
| 2026-05-07 17:42 | 47.83470 | 15.57468 | 36997 ft | 493 kts | 99° |
| 2026-05-07 17:42 | 47.82704 | 15.67681 | 36998 ft | 493 kts | 100° |
| 2026-05-07 17:43 | 47.81947 | 15.77667 | 37004 ft | 492 kts | 99° |
| 2026-05-07 17:43 | 47.81174 | 15.87750 | 36997 ft | 494 kts | 100° |
| 2026-05-07 17:44 | 47.80383 | 15.97952 | 36978 ft | 494 kts | 100° |
| 2026-05-07 17:44 | 47.79590 | 16.08060 | 36995 ft | 492 kts | 100° |
| 2026-05-07 17:45 | 47.78787 | 16.18153 | 37012 ft | 492 kts | 100° |
| 2026-05-07 17:45 | 47.77974 | 16.28283 | 36989 ft | 492 kts | 100° |
| 2026-05-07 17:46 | 47.77155 | 16.38360 | 36982 ft | 493 kts | 100° |
| 2026-05-07 17:46 | 47.76327 | 16.48448 | 36998 ft | 493 kts | 100° |
| 2026-05-07 17:47 | 47.75489 | 16.58551 | 36979 ft | 493 kts | 100° |
| 2026-05-07 17:47 | 47.74642 | 16.68634 | 36982 ft | 493 kts | 101° |
| 2026-05-07 17:48 | 47.73800 | 16.78571 | 36975 ft | 493 kts | 101° |
| 2026-05-07 17:48 | 47.72930 | 16.88736 | 36972 ft | 492 kts | 101° |
| 2026-05-07 17:49 | 47.72053 | 16.98830 | 36971 ft | 491 kts | 101° |
| 2026-05-07 17:49 | 47.71188 | 17.08939 | 36974 ft | 492 kts | 100° |
| 2026-05-07 17:50 | 47.70421 | 17.19080 | 36970 ft | 492 kts | 99° |
| 2026-05-07 17:50 | 47.69656 | 17.29182 | 36976 ft | 492 kts | 100° |
| 2026-05-07 17:51 | 47.68874 | 17.39283 | 36975 ft | 491 kts | 100° |
| 2026-05-07 17:51 | 47.68477 | 17.44353 | 36864 ft | 491 kts | 100° |
| 2026-05-07 17:51 | 47.68074 | 17.49453 | 36927 ft | 492 kts | 100° |
| 2026-05-07 17:52 | 47.67267 | 17.59565 | 36960 ft | 493 kts | 100° |
| 2026-05-07 17:52 | 47.66450 | 17.69700 | 36977 ft | 492 kts | 101° |
| 2026-05-07 17:53 | 47.65633 | 17.79695 | 36987 ft | 492 kts | 101° |
| 2026-05-07 17:53 | 47.64802 | 17.89766 | 36987 ft | 492 kts | 101° |
| 2026-05-07 17:54 | 47.63957 | 17.99889 | 36994 ft | 492 kts | 101° |
| 2026-05-07 17:54 | 47.63107 | 18.09965 | 36976 ft | 492 kts | 101° |
| 2026-05-07 17:55 | 47.62248 | 18.20053 | 36980 ft | 491 kts | 101° |
| 2026-05-07 17:55 | 47.61379 | 18.30139 | 36984 ft | 491 kts | 101° |
| 2026-05-07 17:56 | 47.60504 | 18.40192 | 36978 ft | 491 kts | 101° |
| 2026-05-07 17:56 | 47.59614 | 18.50294 | 36985 ft | 492 kts | 101° |
| 2026-05-07 17:57 | 47.58866 | 18.58726 | 36990 ft | 491 kts | 101° |
| 2026-05-07 17:57 | 47.57811 | 18.70513 | 36996 ft | 491 kts | 102° |
| 2026-05-07 17:58 | 47.56904 | 18.80507 | 37001 ft | 492 kts | 102° |
| 2026-05-07 17:58 | 47.55985 | 18.90546 | 36997 ft | 484 kts | 102° |
| 2026-05-07 17:59 | 47.55068 | 19.00487 | 36994 ft | 480 kts | 102° |
| 2026-05-07 17:59 | 47.54145 | 19.10338 | 37012 ft | 479 kts | 102° |
| 2026-05-07 18:00 | 47.53225 | 19.20096 | 37012 ft | 478 kts | 102° |
| 2026-05-07 18:00 | 47.52283 | 19.29998 | 37030 ft | 478 kts | 102° |
| 2026-05-07 18:01 | 47.51344 | 19.39779 | 37013 ft | 477 kts | 102° |
| 2026-05-07 18:01 | 47.50399 | 19.49542 | 37027 ft | 477 kts | 102° |
| 2026-05-07 18:02 | 47.48962 | 19.64205 | 37017 ft | 475 kts | 102° |
| 2026-05-07 18:03 | 47.48012 | 19.73789 | 37025 ft | 474 kts | 103° |
| 2026-05-07 18:03 | 47.47037 | 19.83533 | 37008 ft | 474 kts | 103° |
| 2026-05-07 18:04 | 47.46070 | 19.93127 | 37012 ft | 472 kts | 103° |
| 2026-05-07 18:04 | 47.45089 | 20.02756 | 37005 ft | 471 kts | 102° |
| 2026-05-07 18:05 | 47.44111 | 20.12301 | 36999 ft | 471 kts | 103° |
| 2026-05-07 18:05 | 47.43112 | 20.21944 | 37004 ft | 470 kts | 103° |
| 2026-05-07 18:06 | 47.42119 | 20.31462 | 37003 ft | 470 kts | 102° |
| 2026-05-07 18:06 | 47.41113 | 20.41023 | 37002 ft | 470 kts | 102° |
| 2026-05-07 18:07 | 47.40101 | 20.50549 | 36997 ft | 469 kts | 102° |
| 2026-05-07 18:07 | 47.39078 | 20.60110 | 36998 ft | 468 kts | 102° |
| 2026-05-07 18:08 | 47.38055 | 20.69612 | 36998 ft | 467 kts | 103° |
| 2026-05-07 18:08 | 47.37019 | 20.79146 | 37001 ft | 467 kts | 103° |
| 2026-05-07 18:09 | 47.35985 | 20.88580 | 36993 ft | 467 kts | 103° |
| 2026-05-07 18:09 | 47.34931 | 20.98122 | 36992 ft | 467 kts | 103° |
| 2026-05-07 18:10 | 47.33879 | 21.07571 | 36999 ft | 466 kts | 103° |
| 2026-05-07 18:10 | 47.32811 | 21.17069 | 37004 ft | 466 kts | 103° |
| 2026-05-07 18:11 | 47.31749 | 21.26477 | 36994 ft | 466 kts | 103° |
| 2026-05-07 18:11 | 47.30670 | 21.35951 | 36988 ft | 465 kts | 103° |
| 2026-05-07 18:11 | 47.30138 | 21.40605 | 36867 ft | 464 kts | 103° |
| 2026-05-07 18:12 | 47.29603 | 21.45272 | 36574 ft | 454 kts | 103° |
| 2026-05-07 18:12 | 47.29076 | 21.49856 | 36339 ft | 444 kts | 103° |
| 2026-05-07 18:12 | 47.28563 | 21.54291 | 36120 ft | 441 kts | 103° |
| 2026-05-07 18:12 | 47.28046 | 21.58732 | 35846 ft | 439 kts | 103° |
| 2026-05-07 18:13 | 47.27523 | 21.63201 | 35481 ft | 438 kts | 103° |
| 2026-05-07 18:13 | 47.27004 | 21.67628 | 34999 ft | 437 kts | 104° |
| 2026-05-07 18:13 | 47.26482 | 21.72056 | 34415 ft | 438 kts | 104° |
| 2026-05-07 18:13 | 47.25961 | 21.76450 | 33791 ft | 438 kts | 103° |
| 2026-05-07 18:14 | 47.25429 | 21.80891 | 33395 ft | 432 kts | 104° |
| 2026-05-07 18:14 | 47.24790 | 21.85164 | 33022 ft | 428 kts | 108° |
| 2026-05-07 18:14 | 47.23974 | 21.89373 | 32630 ft | 423 kts | 111° |
| 2026-05-07 18:14 | 47.23006 | 21.93449 | 32240 ft | 420 kts | 114° |
| 2026-05-07 18:15 | 47.21987 | 21.97513 | 31839 ft | 417 kts | 114° |
| 2026-05-07 18:15 | 47.20992 | 22.01475 | 31350 ft | 416 kts | 114° |
| 2026-05-07 18:15 | 47.19978 | 22.05523 | 30900 ft | 412 kts | 114° |
| 2026-05-07 18:15 | 47.18995 | 22.09449 | 30492 ft | 408 kts | 114° |
| 2026-05-07 18:16 | 47.18006 | 22.13383 | 30074 ft | 405 kts | 114° |
| 2026-05-07 18:16 | 47.17025 | 22.17276 | 29651 ft | 401 kts | 114° |
| 2026-05-07 18:16 | 47.16056 | 22.21114 | 29229 ft | 398 kts | 113° |
| 2026-05-07 18:16 | 47.15093 | 22.24920 | 28810 ft | 395 kts | 114° |
| 2026-05-07 18:17 | 47.14139 | 22.28690 | 28394 ft | 392 kts | 114° |
| 2026-05-07 18:17 | 47.13189 | 22.32431 | 27976 ft | 389 kts | 114° |
| 2026-05-07 18:17 | 47.12237 | 22.36175 | 27558 ft | 386 kts | 114° |
| 2026-05-07 18:17 | 47.11303 | 22.39840 | 27148 ft | 384 kts | 114° |
| 2026-05-07 18:18 | 47.10365 | 22.43518 | 26737 ft | 381 kts | 113° |
| 2026-05-07 18:18 | 47.09438 | 22.47144 | 26327 ft | 379 kts | 113° |
| 2026-05-07 18:18 | 47.08506 | 22.50781 | 25911 ft | 376 kts | 113° |
| 2026-05-07 18:18 | 47.07598 | 22.54326 | 25506 ft | 374 kts | 113° |
| 2026-05-07 18:19 | 47.06676 | 22.57917 | 25090 ft | 371 kts | 113° |
| 2026-05-07 18:19 | 47.05770 | 22.61442 | 24731 ft | 368 kts | 113° |
| 2026-05-07 18:19 | 47.04869 | 22.64962 | 24374 ft | 364 kts | 112° |
| 2026-05-07 18:19 | 47.04000 | 22.68396 | 23982 ft | 362 kts | 113° |
| 2026-05-07 18:20 | 47.03121 | 22.71903 | 23579 ft | 360 kts | 113° |
| 2026-05-07 18:20 | 47.02270 | 22.75350 | 23132 ft | 360 kts | 112° |
| 2026-05-07 18:20 | 47.01422 | 22.78775 | 22831 ft | 355 kts | 113° |
| 2026-05-07 18:20 | 47.00567 | 22.82136 | 22380 ft | 356 kts | 114° |
| 2026-05-07 18:21 | 46.99493 | 22.85423 | 21683 ft | 359 kts | 125° |
| 2026-05-07 18:21 | 46.98066 | 22.88460 | 21197 ft | 357 kts | 129° |
| 2026-05-07 18:21 | 46.96598 | 22.91429 | 20678 ft | 358 kts | 128° |
| 2026-05-07 18:21 | 46.95237 | 22.94221 | 20155 ft | 359 kts | 128° |
| 2026-05-07 18:22 | 46.93804 | 22.97218 | 19584 ft | 361 kts | 127° |
| 2026-05-07 18:22 | 46.93321 | 22.98241 | 19388 ft | 362 kts | 127° |
| 2026-05-07 18:22 | 46.90931 | 23.03348 | 18436 ft | 362 kts | 127° |
| 2026-05-07 18:22 | 46.89531 | 23.06368 | 17983 ft | 359 kts | 127° |
| 2026-05-07 18:23 | 46.88139 | 23.09379 | 17551 ft | 355 kts | 127° |
| 2026-05-07 18:23 | 46.86752 | 23.12383 | 17129 ft | 351 kts | 127° |
| 2026-05-07 18:23 | 46.85398 | 23.15313 | 16699 ft | 348 kts | 127° |
| 2026-05-07 18:23 | 46.84034 | 23.18260 | 16277 ft | 344 kts | 127° |
| 2026-05-07 18:24 | 46.82710 | 23.21118 | 15866 ft | 341 kts | 127° |
| 2026-05-07 18:24 | 46.81378 | 23.23991 | 15465 ft | 338 kts | 127° |
| 2026-05-07 18:24 | 46.80051 | 23.26849 | 15045 ft | 334 kts | 127° |
| 2026-05-07 18:24 | 46.78762 | 23.29625 | 14647 ft | 332 kts | 127° |
| 2026-05-07 18:25 | 46.77480 | 23.32381 | 14255 ft | 329 kts | 127° |
| 2026-05-07 18:25 | 46.76179 | 23.35176 | 13850 ft | 326 kts | 127° |
| 2026-05-07 18:25 | 46.74905 | 23.37912 | 13452 ft | 324 kts | 127° |
| 2026-05-07 18:25 | 46.73656 | 23.40592 | 13073 ft | 321 kts | 127° |
| 2026-05-07 18:26 | 46.72393 | 23.43303 | 12663 ft | 319 kts | 127° |
| 2026-05-07 18:26 | 46.71144 | 23.45974 | 12263 ft | 316 kts | 128° |
| 2026-05-07 18:26 | 46.69904 | 23.48622 | 11856 ft | 314 kts | 127° |
| 2026-05-07 18:26 | 46.69087 | 23.50366 | 11577 ft | 313 kts | 127° |
| 2026-05-07 18:27 | 46.67459 | 23.53837 | 11074 ft | 309 kts | 127° |
| 2026-05-07 18:27 | 46.66236 | 23.56445 | 10691 ft | 307 kts | 127° |
| 2026-05-07 18:27 | 46.65040 | 23.58993 | 10297 ft | 305 kts | 127° |
| 2026-05-07 18:27 | 46.64243 | 23.60691 | 10041 ft | 304 kts | 127° |
| 2026-05-07 18:28 | 46.62674 | 23.64030 | 9707 ft | 295 kts | 127° |
| 2026-05-07 18:28 | 46.61499 | 23.66528 | 9294 ft | 294 kts | 127° |
| 2026-05-07 18:28 | 46.60345 | 23.68975 | 8893 ft | 292 kts | 127° |
| 2026-05-07 18:28 | 46.59195 | 23.71413 | 8523 ft | 290 kts | 127° |
| 2026-05-07 18:29 | 46.58444 | 23.73002 | 8278 ft | 289 kts | 127° |
| 2026-05-07 18:29 | 46.56932 | 23.76204 | 7800 ft | 286 kts | 127° |
| 2026-05-07 18:29 | 46.55792 | 23.78613 | 7434 ft | 283 kts | 127° |
| 2026-05-07 18:29 | 46.54681 | 23.80960 | 7087 ft | 281 kts | 127° |
| 2026-05-07 18:30 | 46.53952 | 23.82498 | 6863 ft | 279 kts | 127° |
| 2026-05-07 18:30 | 46.52473 | 23.85622 | 6399 ft | 276 kts | 127° |
| 2026-05-07 18:30 | 46.51378 | 23.87931 | 6050 ft | 274 kts | 126° |
| 2026-05-07 18:30 | 46.50299 | 23.90202 | 5707 ft | 272 kts | 126° |
| 2026-05-07 18:31 | 46.49236 | 23.92439 | 5366 ft | 269 kts | 126° |
| 2026-05-07 18:31 | 46.48193 | 23.94635 | 5039 ft | 256 kts | 126° |
| 2026-05-07 18:31 | 46.47526 | 23.96039 | 4829 ft | 248 kts | 126° |
| 2026-05-07 18:31 | 46.46222 | 23.98782 | 4426 ft | 248 kts | 125° |
| 2026-05-07 18:32 | 46.45237 | 24.00847 | 4122 ft | 246 kts | 125° |
| 2026-05-07 18:32 | 46.44288 | 24.02838 | 4003 ft | 234 kts | 124° |
| 2026-05-07 18:32 | 46.43665 | 24.04144 | 4004 ft | 232 kts | 124° |
| 2026-05-07 18:32 | 46.42438 | 24.06719 | 4003 ft | 232 kts | 124° |
| 2026-05-07 18:33 | 46.41521 | 24.08643 | 4001 ft | 232 kts | 123° |
| 2026-05-07 18:33 | 46.40899 | 24.10772 | 3989 ft | 231 kts | 94° |
| 2026-05-07 18:33 | 46.40962 | 24.12330 | 3995 ft | 231 kts | 74° |
| 2026-05-07 18:33 | 46.41571 | 24.15313 | 4004 ft | 230 kts | 71° |
| 2026-05-07 18:34 | 46.42038 | 24.17531 | 4002 ft | 229 kts | 72° |
| 2026-05-07 18:34 | 46.42491 | 24.19737 | 3999 ft | 229 kts | 72° |
| 2026-05-07 18:34 | 46.42795 | 24.21230 | 3998 ft | 228 kts | 72° |
| 2026-05-07 18:34 | 46.43383 | 24.24150 | 3998 ft | 228 kts | 72° |
| 2026-05-07 18:35 | 46.43829 | 24.26380 | 4000 ft | 228 kts | 72° |
| 2026-05-07 18:35 | 46.44273 | 24.28594 | 4001 ft | 228 kts | 72° |
| 2026-05-07 18:35 | 46.44571 | 24.30085 | 4000 ft | 228 kts | 72° |
| 2026-05-07 18:35 | 46.45462 | 24.32846 | 3979 ft | 225 kts | 39° |
| 2026-05-07 18:36 | 46.46869 | 24.33762 | 3993 ft | 222 kts | 2° |
| 2026-05-07 18:36 | 46.48362 | 24.33400 | 3996 ft | 219 kts | 331° |
| 2026-05-07 18:36 | 46.49185 | 24.32542 | 3998 ft | 218 kts | 311° |
| 2026-05-07 18:36 | 46.49888 | 24.30629 | 4000 ft | 219 kts | 280° |
| 2026-05-07 18:37 | 46.49814 | 24.28441 | 4000 ft | 215 kts | 256° |
| 2026-05-07 18:37 | 46.49427 | 24.26419 | 3983 ft | 201 kts | 255° |
| 2026-05-07 18:37 | 46.49058 | 24.24517 | 3950 ft | 187 kts | 255° |
| 2026-05-07 18:37 | 46.48599 | 24.22190 | 3891 ft | 176 kts | 255° |
| 2026-05-07 18:38 | 46.48372 | 24.21049 | 3793 ft | 175 kts | 255° |
| 2026-05-07 18:38 | 46.48040 | 24.19397 | 3632 ft | 167 kts | 255° |
| 2026-05-07 18:38 | 46.47479 | 24.17942 | 3498 ft | 168 kts | 221° |
| 2026-05-07 18:38 | 46.46023 | 24.17168 | 3500 ft | 175 kts | 174° |
| 2026-05-07 18:39 | 46.45229 | 24.17464 | 3515 ft | 176 kts | 161° |
| 2026-05-07 18:39 | 46.44136 | 24.18272 | 3493 ft | 178 kts | 135° |
| 2026-05-07 18:39 | 46.43449 | 24.19739 | 3491 ft | 171 kts | 115° |
| 2026-05-07 18:39 | 46.43080 | 24.21833 | 3423 ft | 161 kts | 84° |
| 2026-05-07 18:40 | 46.43176 | 24.22889 | 3287 ft | 159 kts | 75° |
| 2026-05-07 18:40 | 46.43460 | 24.24435 | 3078 ft | 157 kts | 70° |
| 2026-05-07 18:40 | 46.43787 | 24.25956 | 2874 ft | 157 kts | 70° |
| 2026-05-07 18:40 | 46.44093 | 24.27442 | 2703 ft | 150 kts | 71° |
| 2026-05-07 18:41 | 46.44369 | 24.28858 | 2483 ft | 142 kts | 72° |
| 2026-05-07 18:41 | 46.44633 | 24.30236 | 2297 ft | 141 kts | 72° |
| 2026-05-07 18:41 | 46.44897 | 24.31610 | 2119 ft | 142 kts | 72° |
| 2026-05-07 18:41 | 46.45255 | 24.33456 | 1875 ft | 141 kts | 73° |
| 2026-05-07 18:42 | 46.45433 | 24.34377 | 1752 ft | 140 kts | 73° |
| 2026-05-07 18:42 | 46.45694 | 24.35721 | 1569 ft | 139 kts | 73° |
| 2026-05-07 18:42 | 46.45954 | 24.37064 | 1390 ft | 139 kts | 73° |
| 2026-05-07 18:42 | 46.46219 | 24.38424 | 1209 ft | 138 kts | 73° |
| 2026-05-07 18:43 | 46.46478 | 24.39753 | 1030 ft | 138 kts | 73° |
| 2026-05-07 18:43 | 46.46722 | 24.40997 | 963 ft | 103 kts | 74° |
| 2026-05-07 18:43 | 46.46862 | 24.41716 | 968 ft | 60 kts | 72° |
| 2026-05-07 18:43 | 46.46952 | 24.42199 | 969 ft | 13 kts | 99° |
| 2026-05-07 18:44 | 46.46907 | 24.42256 | 969 ft | 13 kts | 165° |
| 2026-05-07 18:44 | 46.46843 | 24.42281 | 970 ft | 7 kts | 170° |
| 2026-05-07 18:44 | 46.46806 | 24.42254 | 970 ft | 5 kts | 199° |
| 2026-05-07 18:44 | 46.46770 | 24.42258 | 970 ft | 2 kts | 193° |
| 2026-05-07 18:45 | 46.46764 | 24.42236 | 970 ft | 2 kts | 294° |
| 2026-05-07 18:45 | 46.46769 | 24.42227 | 970 ft | 0 kts | 309° |